Jan Lang

Olheiro-Chefe - RB Leipzig
5 Dez 2027
Domingo
Processo

Personalidade

Adaptabilidade (11) Ambição (18) Controvérsia (4) Lealdade (18) Pressão (20) Profissionalismo (19) Espírito Esportivo (18) Temperamento (12)

Perfil

Estilo de Treinamento Democrático
Licença Continental Pro
Determinação 13
Gestão de Pessoas 6
Motivação 11
Disciplina 16
Satisfação no Trabalho
100%
Fadiga
0%
Função Olheiro-Chefe
Salário 68.1K p/s
Contrato 14.03.2029

Desempenho

Comportamento Bom
Eficácia do Treinamento
59%
Desenvolvimento do Jogador
40%
Prevenção de Lesões
75%
Implementação Tática
80%

Eventos Recentes

Avaliou um jogador agora
Avaliou um jogador agora
Participou de uma reunião de recrutamento agora
Participou de uma reunião de recrutamento agora
Participou de uma reunião de recrutamento agora
Avaliou um jogador agora
Avaliou um jogador agora
Avaliou um jogador 7d atrás

Monitorando agora

223
Jogador Clube Status Habilidade Confiança Observado Última observação Último voto
Iliman N'Diaye Derby County Ativo 166 / 166 40% 23 03.12.2027 -
Matheus Cunha Manchester United Ativo 166 / 156 40% 11 03.12.2027 -
Julián Álvarez Atlético Madrid Ativo 172 / 174 40% 12 02.12.2027 -
Vangelis Pavlidis VfL Wolfsburg Ativo 157 / 166 40% 9 02.12.2027 -
Rayan Cherki Manchester City Ativo 167 / 162 40% 23 01.12.2027 -
Vinícius Júnior Real Madrid Ativo 182 / 178 40% 10 01.12.2027 -
Maximilian Beier Borussia Dortmund Ativo 163 / 154 40% 4 01.12.2027 -
Ismaïla Sarr Crystal Palace Ativo 155 / 159 40% 8 30.11.2027 -
Jérémy Doku Manchester City Ativo 171 / 171 40% 5 30.11.2027 -
Takefusa Kubo Real Sociedad Ativo 161 / 155 40% 8 30.11.2027 -
Alphonso Davies Bayern Munich Ativo 170 / 165 40% 8 29.11.2027 -
Eduardo Camavinga Real Madrid Ativo 170 / 168 40% 2 29.11.2027 -
Kylian Mbappé Real Madrid Ativo 192 / 194 40% 12 29.11.2027 -
Benjamin Šeško Manchester United Ativo 155 / 159 40% 4 27.11.2027 -
Hugo Ekitiké Liverpool Ativo 171 / 169 40% 6 25.11.2027 -
Bradley Barcola Liverpool Ativo 168 / 165 40% 20 25.11.2027 -
Dani Olmo Barcelona Ativo 164 / 162 40% 10 25.11.2027 -
Lennart Karl VfL Wolfsburg Ativo 136 / 135 40% 2 25.11.2027 -
Ethan Nwaneri Arsenal Ativo 150 / 151 40% 3 25.11.2027 -
Filip Rózga Grodig Ativo 110 / 112 40% 1 25.11.2027 -
Erling Haaland Manchester City Ativo 185 / 188 40% 10 22.11.2027 -
Ferran Torres Paris Saint-Germain Ativo 168 / 167 40% 5 22.11.2027 -
Nick Woltemade Newcastle United Ativo 161 / 161 40% 3 22.11.2027 -
Rodrygo Real Madrid Ativo 167 / 167 40% 21 21.11.2027 -
Kevin Schade Brentford Ativo 158 / 159 40% 22 20.11.2027 -
João Pedro Chelsea Ativo 159 / 154 40% 24 19.11.2027 -
Gabriel Martinelli Arsenal Ativo 166 / 159 40% 22 18.11.2027 -
Kai Havertz Arsenal Ativo 165 / 169 40% 25 17.11.2027 -
Malick Thiaw Manchester City Ativo 160 / 158 40% 1 17.11.2027 -
William Saliba Arsenal Ativo 178 / 184 40% 1 17.11.2027 -
Adrien Truffert Bournemouth Ativo 153 / 152 40% 1 17.11.2027 -
Oskar Spiten-Nysæter Molde Ativo 119 / 110 40% 4 14.11.2027 -
Nikolaus Wurmbrand Basel Ativo 123 / 126 40% 2 14.11.2027 -
Alexander Isak Liverpool Ativo 174 / 181 40% 15 11.11.2027 -
Jonathan David Juventus Ativo 160 / 159 40% 4 11.11.2027 -
Julien Duranville Olympique Lyonnais Ativo 137 / 144 40% 3 10.11.2027 -
Warren Zaïre-Emery Bayern Munich Ativo 155 / 155 40% 1 10.11.2027 -
Babis Kostoulas Queens Park Rangers Ativo 136 / 144 40% 1 10.11.2027 -
Andrej Bačanin Basel Ativo 114 / 116 40% 4 09.11.2027 -
Roger Fernandes Al-Ittihad Ativo 137 / 131 40% 1 09.11.2027 -
Alejandro Balde Barcelona Ativo 161 / 163 40% 3 02.11.2027 -
Achraf Hakimi Paris Saint-Germain Ativo 183 / 186 40% 2 02.11.2027 -
Jesús Rodríguez Como Ativo 151 / 153 40% 1 02.11.2027 -
Bazoumana Touré Ipswich Town Ativo 143 / 152 40% 1 02.11.2027 -
Rémi Himbert AC Ajaccio Ativo 114 / 120 40% 1 02.11.2027 -
Roméo Lavia Chelsea Ativo 155 / 153 40% 1 02.11.2027 -
Christopher Nkunku AC Milan Ativo 159 / 165 40% 6 01.11.2027 -
Karim Adeyemi Barcelona Ativo 155 / 164 40% 15 27.10.2027 -
Edmond Tapsoba Bayer Leverkusen Ativo 153 / 157 40% 1 25.10.2027 -
Omar Marmoush Manchester City Ativo 167 / 170 40% 6 22.10.2027 -
Frenkie de Jong Barcelona Ativo 174 / 170 40% 3 21.10.2027 -
Cody Gakpo Liverpool Ativo 159 / 167 40% 2 21.10.2027 -
Viktor Gyökeres Arsenal Ativo 165 / 155 40% 7 20.10.2027 -
Sanel Šaljić Austria Wien Ativo 122 / 132 40% 2 20.10.2027 -
Ayyoub Bouaddi Luton Town Ativo 144 / 154 40% 1 20.10.2027 -
Fodé Sylla Sion Ativo 117 / 126 40% 3 19.10.2027 -
Kosta Nedeljković Aston Villa Ativo 136 / 135 40% 1 19.10.2027 -
Can Uzun Eintracht Frankfurt Rejeitado 144 / 148 40% 1 19.10.2027 Mais informações
Malo Gusto Olympique de Marseille Ativo 154 / 148 40% 1 18.10.2027 -
Yann Aurel Bisseck Cagliari Ativo 161 / 155 40% 1 18.10.2027 -
Tyrick Mitchell Anderlecht Ativo 155 / 158 40% 1 18.10.2027 -
Anton Stach Leeds United Ativo 154 / 146 40% 5 17.10.2027 -
Alex Verón Vélez Ativo 114 / 124 40% 3 12.10.2027 -
Eli Junior Kroupi Swansea City Ativo 147 / 146 40% 3 12.10.2027 -
Lamine Yamal Barcelona Ativo 179 / 180 40% 2 12.10.2027 -
Aurélien Tchouaméni Real Madrid Ativo 172 / 171 40% 6 10.10.2027 -
João Félix Ajax Ativo 159 / 162 40% 2 10.10.2027 -
Jules Koundé Barcelona Ativo 169 / 161 40% 1 10.10.2027 -
Federico Chiesa Liverpool Ativo 162 / 154 40% 4 06.10.2027 -
Bryan Mbeumo Manchester United Ativo 157 / 164 40% 3 01.10.2027 -
Antoine Semenyo Manchester City Ativo 165 / 157 40% 8 30.09.2027 -
Ademola Lookman Atlético Madrid Ativo 160 / 158 40% 8 28.09.2027 -
Mohammed Kudus Tottenham Ativo 159 / 164 40% 1 20.09.2027 -
Elias Pihlström Lugano Ativo 118 / 114 40% 2 17.09.2027 -
Mateo Peralta Danubio Ativo 117 / 110 40% 1 17.09.2027 -
Ismael Saibari Bayern Munich Ativo 151 / 155 40% 18 14.09.2027 -
Oribe Ochoa Valencia Ativo 158 / 167 40% 7 11.09.2027 -
David Martínez Orlando City Ativo 124 / 136 40% 2 10.09.2027 -
Axel Kayombo Red Bull Salzburg Ativo 116 / 113 40% 1 10.09.2027 -
Edmund Baidoo Red Bull Salzburg Ativo 130 / 127 40% 2 05.09.2027 -
Adrian Skogmar Malmo FF Ativo 105 / 111 40% 2 05.09.2027 -
Richardson Rivas Atletico Nacional Ativo 112 / 124 40% 2 04.09.2027 -
Herba Guirassy Young Boys Ativo 121 / 129 40% 3 04.09.2027 -
Leon Grgić Sturm Graz Ativo 127 / 124 40% 1 04.09.2027 -
Teo Rodríguez Pagano San Lorenzo Ativo 114 / 117 40% 1 02.09.2027 -
Ibrahim Maza Bayern Munich Ativo 156 / 164 40% 2 27.08.2027 -
Taylan Bulut Umraniyespor Ativo 115 / 136 40% 1 27.08.2027 -
Noah Streit CF Montreal Ativo 112 / 126 40% 1 26.08.2027 -
Martin Ødegaard Arsenal Ativo 180 / 174 40% 9 24.08.2027 -
Federico Valverde Real Madrid Perdido 177 / 173 40% 1 24.08.2027 -
Jonas Harder Basel Ativo 114 / 118 40% 1 24.08.2027 -
Mohamed Amoura VfL Wolfsburg Ativo 159 / 163 40% 1 21.08.2027 -
Samu Aghehowa Bayer Leverkusen Ativo 150 / 155 40% 2 19.08.2027 -
Nicolò Zaniolo Udinese Ativo 147 / 153 40% 1 19.08.2027 -
Marcus Thuram Inter Ativo 175 / 167 40% 20 18.08.2027 -
Rasmus Højlund Napoli Ativo 158 / 158 40% 1 18.08.2027 -
Deniz Undav VfB Stuttgart Ativo 152 / 163 40% 2 17.08.2027 -
Giacomo Raspadori Atalanta Ativo 154 / 144 40% 7 14.08.2027 -
Kenan Yıldız Juventus Ativo 164 / 168 40% 9 14.08.2027 -
Dušan Vlahović Juventus Ativo 161 / 168 40% 9 14.08.2027 -
Jorge De Frutos Rayo Vallecano Ativo 151 / 150 40% 3 13.08.2027 -
Georges Mikautadze Villarreal Ativo 161 / 156 40% 3 13.08.2027 -
Mikel Oyarzábal Real Sociedad Ativo 165 / 157 40% 6 12.08.2027 -
Alexander Sørloth Atlético Madrid Ativo 153 / 159 40% 4 10.08.2027 -
Morgan Rogers Chelsea Ativo 163 / 163 40% 5 09.08.2027 -
Randal Kolo Muani Juventus Ativo 153 / 157 40% 8 08.08.2027 -
Lennon Miller AC Milan Ativo 141 / 143 40% 3 08.08.2027 -
Jorrel Hato Chelsea Ativo 154 / 154 40% 2 08.08.2027 -
Ayoub Oufkir AZ Ativo 131 / 132 40% 1 08.08.2027 -
Caleb Yirenkyi Coventry City Ativo 135 / 138 40% 3 07.08.2027 -
Mateo Retegui Lazio Ativo 163 / 157 40% 4 06.08.2027 -
Assane Diao Fiorentina Ativo 150 / 146 40% 14 05.08.2027 -
Oscar Schwartau Norwich City Ativo 127 / 130 40% 5 05.08.2027 -
Ollie Scarles West Ham United Ativo 131 / 135 40% 2 05.08.2027 -
Evanilson Bournemouth Ativo 157 / 148 40% 10 03.08.2027 -
Buba Sangaré Gijón Ativo 129 / 132 40% 1 01.08.2027 -
Jean-Philippe Mateta Crystal Palace Ativo 159 / 156 40% 11 31.07.2027 -
Patrik Schick Bayer Leverkusen Ativo 167 / 163 40% 3 31.07.2027 -
Nicolas Jackson Aston Villa Ativo 152 / 155 40% 1 31.07.2027 -
Josh King Charlton Athletic Ativo 138 / 143 40% 2 26.07.2027 -
Sidiki Chérif Coventry City Ativo 125 / 135 40% 1 26.07.2027 -
Alex Amaral Porto Ativo 156 / 162 40% 2 23.07.2027 -
Geovany Quenda Chelsea Ativo 151 / 153 40% 2 23.07.2027 -
Christos Mouzakitis Hull City Ativo 137 / 145 40% 3 22.07.2027 -
Saïd El Mala Köln Rejeitado 134 / 150 40% 1 22.07.2027 -
Ousmane Dembélé Paris Saint-Germain Ativo 184 / 189 40% 8 20.07.2027 -
Jobe Bellingham VfB Stuttgart Ativo 145 / 142 40% 2 20.07.2027 -
Ethan Williams Peterborough United Ativo 113 / 128 40% 1 20.07.2027 -
Ez Abde Betis Ativo 155 / 147 40% 11 18.07.2027 -
Pablo García Racing Santander Ativo 130 / 131 40% 1 16.07.2027 -
Diogo Guzmán Deportivo La Coruña Ativo 118 / 125 40% 1 11.07.2027 -
Shea Lacey Hull City Ativo 127 / 133 40% 1 10.07.2027 -
Georginio Rutter Olympique Lyonnais Ativo 154 / 157 40% 10 04.07.2027 -
Charles De Ketelaere Atalanta Ativo 154 / 156 40% 2 01.07.2027 -
Jarrod Bowen West Ham United Ativo 151 / 148 40% 1 30.06.2027 -
Ivan Toney Brighton Ativo 154 / 150 40% 1 29.06.2027 -
Gabriel Jesus Barcelona Ativo 158 / 156 40% 1 28.06.2027 -
Donyell Malen AS Roma Ativo 151 / 156 40% 1 28.06.2027 -
Isaac Romero Sevilla Perdido 143 / 147 40% 1 03.06.2027 -
Isaac Romero Sevilla Perdido 146 / 148 40% 6 01.06.2027 -
Brennan Johnson Everton Ativo 141 / 146 40% 5 01.06.2027 -
Pau Víctor Braga Ativo 139 / 139 40% 3 25.05.2027 -
Ilyas Ansah Hull City Ativo 137 / 127 40% 4 23.05.2027 -
Jorge Pascual Granada Ativo 135 / 128 40% 1 23.05.2027 -
Dango Ouattara Brentford Ativo 143 / 152 40% 1 18.05.2027 -
Žan Vipotnik Swansea City Ativo 132 / 132 40% 1 18.05.2027 -
Iñaki Williams Athletic Bilbao Ativo 154 / 151 40% 4 16.05.2027 -
Patrik Schick Bayer Leverkusen Perdido 154 / 163 40% 5 15.05.2027 -
Senne Lammens AS Roma Ativo 155 / 157 40% 2 13.05.2027 -
Guillaume Restes Toulouse FC Ativo 139 / 145 40% 1 13.05.2027 -
Givairo Read Feyenoord Ativo 144 / 146 40% 1 07.05.2027 -
Emanuel Emegha Chelsea Ativo 137 / 144 40% 2 05.05.2027 -
Zion Suzuki Aston Villa Ativo 144 / 136 40% 2 01.05.2027 -
Kostantis Tzolakis Mainz 05 Ativo 145 / 137 40% 2 01.05.2027 -
Kauã Santos Werder Bremen Ativo 141 / 133 40% 2 01.05.2027 -
Marvin Keller Tottenham Negociando 142 / 141 40% 2 27.04.2027 Mais informações
Antonín Kinský Wolverhampton Ativo 147 / 141 40% 1 27.04.2027 -
Roberto Fernández Braga Ativo 139 / 138 40% 6 24.04.2027 -
Adam Hložek TSG Hoffenheim Ativo 133 / 132 40% 3 22.04.2027 Observar
Tom Cannon Sheffield United Ativo 126 / 125 40% 1 21.04.2027 -
Jonas Urbig Bayern Munich Ativo 144 / 135 40% 1 21.04.2027 -
Pablo Campos Levante Ativo 133 / 130 40% 1 21.04.2027 -
Sorriso Famalicao Ativo 128 / 128 40% 1 16.04.2027 -
Lucas Ocampos Monterrey Ativo 163 / 157 40% 5 12.04.2027 -
Fabrizio Cavegn Bristol Rovers Ativo 114 / 117 40% 1 07.04.2027 -
Kobbie Mainoo Manchester United Ativo 147 / 149 40% 3 03.04.2027 -
Lucas Høgsberg RC Strasbourg Ativo 132 / 137 40% 1 03.04.2027 -
Chupete Málaga Ativo 131 / 134 40% 1 30.03.2027 -
Urko Izeta Cádiz Ativo 135 / 124 40% 1 28.03.2027 -
Illaijh de Ruijter ADO Den Haag Ativo 109 / 123 40% 1 25.03.2027 -
Christian Mawissa Monaco Ativo 134 / 135 40% 1 25.03.2027 -
Karl Hein Werder Bremen Ativo 146 / 136 40% 1 22.03.2027 -
Chris Brady Aston Villa Ativo 128 / 138 40% 1 22.03.2027 -
Derry Scherhant SC Freiburg Ativo 124 / 133 40% 2 15.03.2027 -
Juan Cruz de los Santos Pacos de Ferreira Ativo 126 / 118 40% 2 14.03.2027 -
Iván Romero Levante Ativo 138 / 142 40% 1 14.03.2027 -
Lukáš Horníček Liverpool Ativo 148 / 150 40% 1 09.03.2027 -
Yann Leclercq Chamois Niortais Ativo 159 / 149 40% 12 28.02.2027 -
Maroan Sannadi Athletic Bilbao Ativo 136 / 139 40% 1 25.02.2027 -
Sinan Karweina Luzern Ativo 116 / 104 40% 1 21.02.2027 -
Mike Maignan Bayern Munich Ativo 162 / 153 40% 1 11.01.2027 -
Nico Williams Athletic Bilbao Rejeitado 170 / 159 40% 7 30.12.2026 -
Declan Rice Arsenal Ativo 190 / 180 40% 6 29.12.2026 -
Luis Díaz Bayern Munich Ativo 163 / 161 40% 5 29.12.2026 -
Jamal Musiala Bayern Munich Rejeitado 166 / 169 40% 10 27.12.2026 -
Julian Brandt Ajax Ativo 150 / 145 40% 8 26.12.2026 -
Kang-In Lee Atlético Madrid Ativo 160 / 157 40% 9 22.12.2026 -
Leon Goretzka Aston Villa Ativo 157 / 146 40% 4 21.12.2026 -
Noni Madueke Arsenal Ativo 150 / 156 40% 1 21.12.2026 -
Jadon Sancho Manchester United Ativo 152 / 150 40% 2 20.12.2026 -
Boubacar Kamara Aston Villa Ativo 169 / 169 40% 3 19.12.2026 -
Pedri Barcelona Ativo 176 / 182 40% 3 16.12.2026 -
Moussa Diaby Bayer Leverkusen Ativo 147 / 153 40% 2 15.12.2026 -
Morgan Gibbs-White Nottingham Forest Ativo 153 / 153 40% 2 14.12.2026 -
Álex Baena Werder Bremen Ativo 162 / 167 40% 4 08.12.2026 -
Xavi Simons Tottenham Ativo 152 / 158 40% 2 29.11.2026 -
Luc François Tours Ativo 162 / 162 40% 3 23.11.2026 -
Marcos Llorente Atlético Madrid Ativo 157 / 147 40% 1 22.11.2026 -
Florian Wirtz Liverpool Ativo 173 / 164 40% 5 20.11.2026 -
Bruno Fernandes Bayern Munich Ativo 183 / 177 40% 5 07.11.2026 -
Grischa Prömel Rapid Wien Ativo 140 / 134 40% 5 06.11.2026 -
Joshua Kimmich Bayern Munich Ativo 175 / 169 40% 2 31.10.2026 -
Oussama Idrissi Pachuca Ativo 131 / 124 40% 1 16.10.2026 -
Miguel Gutiérrez Bayer Leverkusen Ativo 146 / 154 40% 1 30.09.2026 -
Ángel Correa River Plate Ativo 147 / 144 40% 3 28.09.2026 -
Ritsu Doan Gamba Osaka Ativo 147 / 163 40% 2 27.09.2026 -
Emre Can Borussia Dortmund Ativo 155 / 155 40% 1 26.09.2026 -
Phil Foden Manchester City Ativo 177 / 178 40% 1 22.09.2026 -
Bruno Guimarães Arsenal Ativo 169 / 162 40% 2 20.09.2026 -
Nadiem Amiri Mainz 05 Ativo 144 / 154 40% 1 11.09.2026 -
Moisés Caicedo Chelsea Ativo 169 / 173 40% 1 11.09.2026 -
Alejandro Grimaldo Atlético Madrid Ativo 167 / 161 40% 1 08.09.2026 -
El Hadji Malick Diouf Brentford Ativo 137 / 144 40% 1 02.09.2026 -
Pau Navarro Villarreal Ativo 138 / 144 40% 1 02.09.2026 -
Nico O'Reilly Manchester City Ativo 156 / 158 40% 1 30.08.2026 -
Leny Yoro Manchester United Ativo 144 / 154 40% 1 30.08.2026 -
Tim Drexler Red Bull Salzburg Ativo 112 / 115 40% 1 29.08.2026 -
Arjan Malić Sturm Graz Ativo 113 / 116 40% 2 27.08.2026 -
Kjell Wätjen FC Midtjylland Ativo 113 / 116 40% 1 27.08.2026 -
Soumaïla Diabaté Red Bull Salzburg Ativo 106 / 109 40% 2 19.08.2026 -
Joane Gadou Borussia Dortmund Ativo 124 / 125 40% 1 19.08.2026 -
Karim Coulibaly RC Strasbourg Ativo 121 / 132 40% 1 19.08.2026 -
Jaydee Canvot Crystal Palace Ativo 122 / 140 40% 1 03.08.2026 -